首页
METAR-TAF:

METAR-TAF

机场 :

Blue River, 不列颠哥伦比亚, 加拿大

纬度: 52-08N, 经度: 119-18W, 海拔: 679米

当前天气观测

该预报发布于50分钟前的00:00 UTC
风速2节,风向西南
温度 13°C
湿度 67%
气压 1011 hPa
能見度: 24.1公里
少量云层高于4000英尺
散云层高于6500英尺, 积雨云.
多云层高于9500英尺
多云层高于25000英尺
附近有阵雨

METAR: CYCP 170000Z 23002KT 15SM VCSH FEW040 SCT065CB BKN095 BKN250 13/07 A2985 RMK SC1CB4AC1CI1 SC TR SLP123 DENSITY ALT 2700FT

时间: 17:50 (00:50 UTC)


TAF: 丢失

超过4000个机场的气象观测和天气预报(METAR&TAF报告)。

可查询的气象台以黄色和红色小点在地图上表示。

将鼠标移到小点上方,可查看气象台名称。

然后点击查看天气观测和预报。

如需切换地图:点击带黑十字的绿色按钮放大地图;点击带横线的绿色按钮缩小地图;或者点击绿色箭头查看邻近地区的地图。


METAR-TAF: